Terminal Aerodrome Forecast
Issued by NWS Wichita, KS

Home | Current Version | Previous Version | Text Only | Print | Product List | Glossary On
Versions: 1 2 3 4 5 6 7 8 9 10 11 12 13 14 15 16 17 18 19 20 21 22 23 24
000
FTUS43 KICT 260727 AAA
TAFICT
TAF AMD
KICT 260727Z 2607/2706 09009KT P6SM VCTS BKN013 OVC040CB
      TEMPO 2607/2611 6SM -TSRA SCT015 OVC040CB
     FM261100 VRB04KT P6SM SCT020 BKN250
     FM261600 13009KT P6SM SCT030=

USA.gov is the U.S. government's official web portal to all federal, state and local government web resources and services.